sensor_id;sensor_type;location;lat;lon;timestamp;temperature;humidity
24224;DHT22;12359;49.716;9.212;2023-08-31T00:01:43;14.80;3.40
24224;DHT22;12359;49.716;9.212;2023-08-31T00:04:09;14.80;1.00
24224;DHT22;12359;49.716;9.212;2023-08-31T00:06:40;14.70;1.00
24224;DHT22;12359;49.716;9.212;2023-08-31T00:09:06;14.70;1.00
24224;DHT22;12359;49.716;9.212;2023-08-31T00:11:35;14.70;1.00
24224;DHT22;12359;49.716;9.212;2023-08-31T00:14:01;14.60;1.00
24224;DHT22;12359;49.716;9.212;2023-08-31T00:16:27;14.60;1.00
24224;DHT22;12359;49.716;9.212;2023-08-31T00:18:53;14.50;1.00
24224;DHT22;12359;49.716;9.212;2023-08-31T00:21:20;14.50;1.00
24224;DHT22;12359;49.716;9.212;2023-08-31T00:23:46;14.50;1.00
24224;DHT22;12359;49.716;9.212;2023-08-31T00:26:12;14.50;1.00
24224;DHT22;12359;49.716;9.212;2023-08-31T00:28:38;14.50;1.00
24224;DHT22;12359;49.716;9.212;2023-08-31T00:31:04;14.40;1.00
24224;DHT22;12359;49.716;9.212;2023-08-31T00:33:30;14.40;1.00
24224;DHT22;12359;49.716;9.212;2023-08-31T00:35:59;14.40;1.00
24224;DHT22;12359;49.716;9.212;2023-08-31T00:38:27;14.40;1.00
24224;DHT22;12359;49.716;9.212;2023-08-31T00:40:53;14.40;1.00
24224;DHT22;12359;49.716;9.212;2023-08-31T00:43:19;14.40;1.00
24224;DHT22;12359;49.716;9.212;2023-08-31T00:45:48;14.40;1.00
24224;DHT22;12359;49.716;9.212;2023-08-31T00:48:15;14.40;1.00
24224;DHT22;12359;49.716;9.212;2023-08-31T00:50:45;14.50;1.00
24224;DHT22;12359;49.716;9.212;2023-08-31T00:53:11;14.50;1.00
24224;DHT22;12359;49.716;9.212;2023-08-31T00:55:38;14.50;1.00
24224;DHT22;12359;49.716;9.212;2023-08-31T00:58:07;14.50;1.00
24224;DHT22;12359;49.716;9.212;2023-08-31T01:09:45;14.50;1.00
24224;DHT22;12359;49.716;9.212;2023-08-31T01:12:18;14.50;1.00
24224;DHT22;12359;49.716;9.212;2023-08-31T01:14:55;14.50;1.00
24224;DHT22;12359;49.716;9.212;2023-08-31T01:17:27;14.40;1.00
24224;DHT22;12359;49.716;9.212;2023-08-31T01:19:54;14.40;1.00
24224;DHT22;12359;49.716;9.212;2023-08-31T01:22:55;14.40;1.00
24224;DHT22;12359;49.716;9.212;2023-08-31T01:25:17;14.40;1.00
24224;DHT22;12359;49.716;9.212;2023-08-31T01:27:43;14.40;1.00
24224;DHT22;12359;49.716;9.212;2023-08-31T01:30:09;14.40;1.00
24224;DHT22;12359;49.716;9.212;2023-08-31T01:32:36;14.40;1.00
24224;DHT22;12359;49.716;9.212;2023-08-31T01:35:03;14.40;1.00
24224;DHT22;12359;49.716;9.212;2023-08-31T01:37:42;14.40;1.00
24224;DHT22;12359;49.716;9.212;2023-08-31T01:40:19;14.30;1.00
24224;DHT22;12359;49.716;9.212;2023-08-31T01:42:46;14.30;1.00
24224;DHT22;12359;49.716;9.212;2023-08-31T01:45:15;14.30;1.00
24224;DHT22;12359;49.716;9.212;2023-08-31T01:47:42;14.20;1.00
24224;DHT22;12359;49.716;9.212;2023-08-31T01:50:08;14.30;1.00
24224;DHT22;12359;49.716;9.212;2023-08-31T01:52:34;14.30;1.00
24224;DHT22;12359;49.716;9.212;2023-08-31T01:55:00;14.20;1.00
24224;DHT22;12359;49.716;9.212;2023-08-31T01:57:25;14.30;1.00
24224;DHT22;12359;49.716;9.212;2023-08-31T01:59:51;14.20;1.00
24224;DHT22;12359;49.716;9.212;2023-08-31T02:02:17;14.20;1.00
24224;DHT22;12359;49.716;9.212;2023-08-31T02:04:43;14.20;1.00
24224;DHT22;12359;49.716;9.212;2023-08-31T02:07:09;14.10;1.00
24224;DHT22;12359;49.716;9.212;2023-08-31T02:09:35;14.10;1.00
24224;DHT22;12359;49.716;9.212;2023-08-31T02:12:00;14.10;1.00
24224;DHT22;12359;49.716;9.212;2023-08-31T02:14:26;14.10;1.00
24224;DHT22;12359;49.716;9.212;2023-08-31T02:16:52;14.10;1.00
24224;DHT22;12359;49.716;9.212;2023-08-31T02:19:17;14.00;1.00
24224;DHT22;12359;49.716;9.212;2023-08-31T02:21:43;14.00;1.00
24224;DHT22;12359;49.716;9.212;2023-08-31T02:24:09;14.00;1.00
24224;DHT22;12359;49.716;9.212;2023-08-31T02:26:37;14.00;1.00
24224;DHT22;12359;49.716;9.212;2023-08-31T02:29:03;14.00;1.00
24224;DHT22;12359;49.716;9.212;2023-08-31T02:31:29;13.90;1.00
24224;DHT22;12359;49.716;9.212;2023-08-31T02:33:55;13.90;1.00
24224;DHT22;12359;49.716;9.212;2023-08-31T02:36:20;13.90;1.00
24224;DHT22;12359;49.716;9.212;2023-08-31T02:38:46;13.80;1.00
24224;DHT22;12359;49.716;9.212;2023-08-31T02:41:12;13.80;1.00
24224;DHT22;12359;49.716;9.212;2023-08-31T02:43:38;13.80;1.00
24224;DHT22;12359;49.716;9.212;2023-08-31T02:46:05;13.80;1.00
24224;DHT22;12359;49.716;9.212;2023-08-31T02:48:32;13.80;1.00
24224;DHT22;12359;49.716;9.212;2023-08-31T02:50:58;13.80;1.00
24224;DHT22;12359;49.716;9.212;2023-08-31T02:53:29;13.80;1.00
24224;DHT22;12359;49.716;9.212;2023-08-31T02:55:56;13.80;1.00
24224;DHT22;12359;49.716;9.212;2023-08-31T02:58:22;13.70;1.00
24224;DHT22;12359;49.716;9.212;2023-08-31T03:00:48;13.70;1.00
24224;DHT22;12359;49.716;9.212;2023-08-31T03:03:15;13.60;1.00
24224;DHT22;12359;49.716;9.212;2023-08-31T03:05:41;13.50;1.00
24224;DHT22;12359;49.716;9.212;2023-08-31T03:08:07;13.50;1.00
24224;DHT22;12359;49.716;9.212;2023-08-31T03:10:32;13.50;1.00
24224;DHT22;12359;49.716;9.212;2023-08-31T03:12:58;13.40;1.00
24224;DHT22;12359;49.716;9.212;2023-08-31T03:15:24;13.40;1.00
24224;DHT22;12359;49.716;9.212;2023-08-31T03:17:49;13.30;1.00
24224;DHT22;12359;49.716;9.212;2023-08-31T03:20:15;13.30;1.00
24224;DHT22;12359;49.716;9.212;2023-08-31T03:22:41;13.30;2.40
24224;DHT22;12359;49.716;9.212;2023-08-31T03:25:07;13.30;7.50
24224;DHT22;12359;49.716;9.212;2023-08-31T03:27:33;13.30;4.80
24224;DHT22;12359;49.716;9.212;2023-08-31T03:29:59;13.30;1.00
24224;DHT22;12359;49.716;9.212;2023-08-31T03:32:25;13.20;1.20
24224;DHT22;12359;49.716;9.212;2023-08-31T03:34:50;13.20;14.20
24224;DHT22;12359;49.716;9.212;2023-08-31T03:37:16;13.30;16.60
24224;DHT22;12359;49.716;9.212;2023-08-31T03:39:42;13.30;17.70
24224;DHT22;12359;49.716;9.212;2023-08-31T03:42:09;13.30;18.90
24224;DHT22;12359;49.716;9.212;2023-08-31T03:44:35;13.40;18.20
24224;DHT22;12359;49.716;9.212;2023-08-31T03:47:02;13.40;17.60
24224;DHT22;12359;49.716;9.212;2023-08-31T03:49:28;13.40;13.90
24224;DHT22;12359;49.716;9.212;2023-08-31T03:51:53;13.50;12.80
24224;DHT22;12359;49.716;9.212;2023-08-31T03:54:20;13.50;9.90
24224;DHT22;12359;49.716;9.212;2023-08-31T03:56:46;13.50;9.00
24224;DHT22;12359;49.716;9.212;2023-08-31T03:59:12;13.60;9.00
24224;DHT22;12359;49.716;9.212;2023-08-31T04:01:38;13.60;7.10
24224;DHT22;12359;49.716;9.212;2023-08-31T04:04:04;13.70;6.70
24224;DHT22;12359;49.716;9.212;2023-08-31T04:06:30;13.70;6.60
24224;DHT22;12359;49.716;9.212;2023-08-31T04:08:56;13.70;7.30
24224;DHT22;12359;49.716;9.212;2023-08-31T04:11:22;13.80;5.40
24224;DHT22;12359;49.716;9.212;2023-08-31T04:13:48;13.80;1.00
24224;DHT22;12359;49.716;9.212;2023-08-31T04:16:14;13.80;6.50
24224;DHT22;12359;49.716;9.212;2023-08-31T04:18:39;13.80;1.40
24224;DHT22;12359;49.716;9.212;2023-08-31T04:21:06;13.80;6.40
24224;DHT22;12359;49.716;9.212;2023-08-31T04:23:31;13.80;9.20
24224;DHT22;12359;49.716;9.212;2023-08-31T04:25:58;13.80;12.10
24224;DHT22;12359;49.716;9.212;2023-08-31T04:28:24;13.80;11.50
24224;DHT22;12359;49.716;9.212;2023-08-31T04:30:50;13.80;11.10
24224;DHT22;12359;49.716;9.212;2023-08-31T04:33:17;13.90;15.60
24224;DHT22;12359;49.716;9.212;2023-08-31T04:35:43;13.90;13.40
24224;DHT22;12359;49.716;9.212;2023-08-31T04:38:08;13.90;4.30
24224;DHT22;12359;49.716;9.212;2023-08-31T04:40:35;14.00;1.00
24224;DHT22;12359;49.716;9.212;2023-08-31T04:43:02;14.00;1.00
24224;DHT22;12359;49.716;9.212;2023-08-31T04:45:28;14.00;1.00
24224;DHT22;12359;49.716;9.212;2023-08-31T04:47:53;14.00;1.00
24224;DHT22;12359;49.716;9.212;2023-08-31T04:50:19;14.00;1.00
24224;DHT22;12359;49.716;9.212;2023-08-31T04:52:45;14.10;1.00
24224;DHT22;12359;49.716;9.212;2023-08-31T04:55:12;14.10;1.00
24224;DHT22;12359;49.716;9.212;2023-08-31T04:57:39;14.10;1.00
24224;DHT22;12359;49.716;9.212;2023-08-31T05:00:05;14.10;1.00
24224;DHT22;12359;49.716;9.212;2023-08-31T05:02:34;14.10;1.00
24224;DHT22;12359;49.716;9.212;2023-08-31T05:05:00;14.10;1.00
24224;DHT22;12359;49.716;9.212;2023-08-31T05:07:26;14.20;1.00
24224;DHT22;12359;49.716;9.212;2023-08-31T05:09:51;14.20;1.00
24224;DHT22;12359;49.716;9.212;2023-08-31T05:12:17;14.20;1.00
24224;DHT22;12359;49.716;9.212;2023-08-31T05:14:43;14.20;1.00
24224;DHT22;12359;49.716;9.212;2023-08-31T05:17:09;14.20;1.00
24224;DHT22;12359;49.716;9.212;2023-08-31T05:19:34;14.30;1.00
24224;DHT22;12359;49.716;9.212;2023-08-31T05:22:00;14.30;1.00
24224;DHT22;12359;49.716;9.212;2023-08-31T05:24:26;14.30;1.00
24224;DHT22;12359;49.716;9.212;2023-08-31T05:26:52;14.20;1.00
24224;DHT22;12359;49.716;9.212;2023-08-31T05:29:17;14.30;1.00
24224;DHT22;12359;49.716;9.212;2023-08-31T05:31:43;14.30;1.00
24224;DHT22;12359;49.716;9.212;2023-08-31T05:34:10;14.30;1.00
24224;DHT22;12359;49.716;9.212;2023-08-31T05:36:36;14.40;1.00
24224;DHT22;12359;49.716;9.212;2023-08-31T05:39:02;14.50;99.90
24224;DHT22;12359;49.716;9.212;2023-08-31T05:41:28;14.50;99.90
24224;DHT22;12359;49.716;9.212;2023-08-31T05:43:54;14.60;99.90
24224;DHT22;12359;49.716;9.212;2023-08-31T05:46:19;14.80;99.90
24224;DHT22;12359;49.716;9.212;2023-08-31T05:48:45;14.90;99.90
24224;DHT22;12359;49.716;9.212;2023-08-31T05:51:11;15.10;99.90
24224;DHT22;12359;49.716;9.212;2023-08-31T05:53:36;15.30;99.90
24224;DHT22;12359;49.716;9.212;2023-08-31T05:56:03;15.40;99.90
24224;DHT22;12359;49.716;9.212;2023-08-31T05:58:33;15.60;1.00
24224;DHT22;12359;49.716;9.212;2023-08-31T06:00:59;15.80;99.90
24224;DHT22;12359;49.716;9.212;2023-08-31T06:03:25;15.90;1.00
24224;DHT22;12359;49.716;9.212;2023-08-31T06:05:51;16.10;1.00
24224;DHT22;12359;49.716;9.212;2023-08-31T06:08:16;16.30;99.90
24224;DHT22;12359;49.716;9.212;2023-08-31T06:10:42;16.50;99.90
24224;DHT22;12359;49.716;9.212;2023-08-31T06:13:08;16.60;99.90
24224;DHT22;12359;49.716;9.212;2023-08-31T06:15:33;16.60;99.90
24224;DHT22;12359;49.716;9.212;2023-08-31T06:17:59;16.50;41.40
24224;DHT22;12359;49.716;9.212;2023-08-31T06:20:25;16.70;99.90
24224;DHT22;12359;49.716;9.212;2023-08-31T06:25:17;18.40;92.80
24224;DHT22;12359;49.716;9.212;2023-08-31T06:27:44;19.70;1.00
24224;DHT22;12359;49.716;9.212;2023-08-31T06:30:10;20.90;1.00
24224;DHT22;12359;49.716;9.212;2023-08-31T06:32:43;20.40;1.00
24224;DHT22;12359;49.716;9.212;2023-08-31T06:35:09;20.20;1.00
24224;DHT22;12359;49.716;9.212;2023-08-31T06:37:36;19.90;49.60
24224;DHT22;12359;49.716;9.212;2023-08-31T06:40:02;19.80;92.20
24224;DHT22;12359;49.716;9.212;2023-08-31T06:42:27;19.80;88.70
24224;DHT22;12359;49.716;9.212;2023-08-31T06:44:53;20.40;61.60
24224;DHT22;12359;49.716;9.212;2023-08-31T06:47:21;20.80;1.00
24224;DHT22;12359;49.716;9.212;2023-08-31T06:49:47;21.50;1.00
24224;DHT22;12359;49.716;9.212;2023-08-31T06:52:12;22.00;99.90
24224;DHT22;12359;49.716;9.212;2023-08-31T06:54:38;22.60;99.90
24224;DHT22;12359;49.716;9.212;2023-08-31T06:57:04;23.70;99.90
24224;DHT22;12359;49.716;9.212;2023-08-31T06:59:30;24.40;99.90
24224;DHT22;12359;49.716;9.212;2023-08-31T07:01:55;24.80;41.50
24224;DHT22;12359;49.716;9.212;2023-08-31T07:04:21;25.40;11.30
24224;DHT22;12359;49.716;9.212;2023-08-31T07:06:47;25.90;1.00
24224;DHT22;12359;49.716;9.212;2023-08-31T07:09:12;26.20;1.00
24224;DHT22;12359;49.716;9.212;2023-08-31T07:11:38;26.50;1.00
24224;DHT22;12359;49.716;9.212;2023-08-31T07:14:04;26.50;1.00
24224;DHT22;12359;49.716;9.212;2023-08-31T07:16:29;27.20;1.00
24224;DHT22;12359;49.716;9.212;2023-08-31T07:18:55;26.90;1.00
24224;DHT22;12359;49.716;9.212;2023-08-31T07:21:21;27.20;1.00
24224;DHT22;12359;49.716;9.212;2023-08-31T07:23:47;27.50;1.00
24224;DHT22;12359;49.716;9.212;2023-08-31T07:26:13;27.70;99.90
24224;DHT22;12359;49.716;9.212;2023-08-31T07:31:07;27.40;99.90
24224;DHT22;12359;49.716;9.212;2023-08-31T07:33:34;27.20;99.90
24224;DHT22;12359;49.716;9.212;2023-08-31T07:36:03;26.70;99.90
24224;DHT22;12359;49.716;9.212;2023-08-31T07:38:30;25.90;99.90
24224;DHT22;12359;49.716;9.212;2023-08-31T07:40:57;25.00;99.90
24224;DHT22;12359;49.716;9.212;2023-08-31T07:43:22;24.40;99.90
24224;DHT22;12359;49.716;9.212;2023-08-31T07:45:49;23.60;99.90
24224;DHT22;12359;49.716;9.212;2023-08-31T07:48:15;22.70;99.90
24224;DHT22;12359;49.716;9.212;2023-08-31T07:50:41;21.90;1.00
24224;DHT22;12359;49.716;9.212;2023-08-31T07:53:07;21.10;1.00
24224;DHT22;12359;49.716;9.212;2023-08-31T07:55:33;20.60;1.00
24224;DHT22;12359;49.716;9.212;2023-08-31T07:58:01;20.10;1.00
24224;DHT22;12359;49.716;9.212;2023-08-31T08:00:27;19.90;1.00
24224;DHT22;12359;49.716;9.212;2023-08-31T08:02:52;19.60;1.00
24224;DHT22;12359;49.716;9.212;2023-08-31T08:05:18;19.40;1.00
24224;DHT22;12359;49.716;9.212;2023-08-31T08:07:44;19.30;20.70
24224;DHT22;12359;49.716;9.212;2023-08-31T08:10:11;19.10;57.20
24224;DHT22;12359;49.716;9.212;2023-08-31T08:12:40;19.10;99.90
24224;DHT22;12359;49.716;9.212;2023-08-31T08:15:06;19.00;99.90
24224;DHT22;12359;49.716;9.212;2023-08-31T08:17:33;19.20;99.90
24224;DHT22;12359;49.716;9.212;2023-08-31T08:19:59;20.50;99.90
24224;DHT22;12359;49.716;9.212;2023-08-31T08:22:25;21.90;61.40
24224;DHT22;12359;49.716;9.212;2023-08-31T08:24:51;23.50;1.00
24224;DHT22;12359;49.716;9.212;2023-08-31T08:27:16;24.80;1.00
24224;DHT22;12359;49.716;9.212;2023-08-31T08:29:44;25.90;1.00
24224;DHT22;12359;49.716;9.212;2023-08-31T08:32:10;26.80;1.00
24224;DHT22;12359;49.716;9.212;2023-08-31T08:34:36;27.00;1.00
24224;DHT22;12359;49.716;9.212;2023-08-31T08:37:02;27.50;99.90
24224;DHT22;12359;49.716;9.212;2023-08-31T08:39:29;27.50;99.90
24224;DHT22;12359;49.716;9.212;2023-08-31T08:41:58;27.10;99.90
24224;DHT22;12359;49.716;9.212;2023-08-31T08:44:32;25.70;99.90
24224;DHT22;12359;49.716;9.212;2023-08-31T08:47:00;25.50;99.90
24224;DHT22;12359;49.716;9.212;2023-08-31T08:49:26;24.80;99.90
24224;DHT22;12359;49.716;9.212;2023-08-31T08:51:53;24.00;99.90
24224;DHT22;12359;49.716;9.212;2023-08-31T08:54:20;23.10;99.90
24224;DHT22;12359;49.716;9.212;2023-08-31T08:56:47;22.70;99.90
24224;DHT22;12359;49.716;9.212;2023-08-31T08:59:13;22.50;99.90
24224;DHT22;12359;49.716;9.212;2023-08-31T09:01:39;22.30;99.90
24224;DHT22;12359;49.716;9.212;2023-08-31T09:04:06;22.50;99.90
24224;DHT22;12359;49.716;9.212;2023-08-31T09:06:32;22.50;99.90
24224;DHT22;12359;49.716;9.212;2023-08-31T09:08:58;22.30;99.90
24224;DHT22;12359;49.716;9.212;2023-08-31T09:11:25;21.90;99.90
24224;DHT22;12359;49.716;9.212;2023-08-31T09:13:51;21.80;99.90
24224;DHT22;12359;49.716;9.212;2023-08-31T09:16:28;21.60;1.00
24224;DHT22;12359;49.716;9.212;2023-08-31T09:18:55;21.50;1.00
24224;DHT22;12359;49.716;9.212;2023-08-31T09:21:21;22.70;1.00
24224;DHT22;12359;49.716;9.212;2023-08-31T09:23:56;23.90;1.00
24224;DHT22;12359;49.716;9.212;2023-08-31T09:26:23;25.10;1.00
24224;DHT22;12359;49.716;9.212;2023-08-31T09:28:49;25.90;99.90
24224;DHT22;12359;49.716;9.212;2023-08-31T09:31:15;26.40;99.90
24224;DHT22;12359;49.716;9.212;2023-08-31T09:33:50;27.00;99.90
24224;DHT22;12359;49.716;9.212;2023-08-31T09:36:16;27.80;99.90
24224;DHT22;12359;49.716;9.212;2023-08-31T09:38:43;28.10;99.90
24224;DHT22;12359;49.716;9.212;2023-08-31T09:41:09;28.40;99.90
24224;DHT22;12359;49.716;9.212;2023-08-31T09:43:35;28.90;99.90
24224;DHT22;12359;49.716;9.212;2023-08-31T09:46:03;28.60;99.90
24224;DHT22;12359;49.716;9.212;2023-08-31T09:48:30;28.60;99.90
24224;DHT22;12359;49.716;9.212;2023-08-31T09:50:56;28.40;99.90
24224;DHT22;12359;49.716;9.212;2023-08-31T09:53:24;28.20;99.90
24224;DHT22;12359;49.716;9.212;2023-08-31T09:55:51;27.40;99.90
24224;DHT22;12359;49.716;9.212;2023-08-31T09:58:21;26.30;99.90
24224;DHT22;12359;49.716;9.212;2023-08-31T10:00:49;26.10;99.90
24224;DHT22;12359;49.716;9.212;2023-08-31T10:03:14;25.00;99.90
24224;DHT22;12359;49.716;9.212;2023-08-31T10:05:43;25.10;99.90
24224;DHT22;12359;49.716;9.212;2023-08-31T10:08:09;25.00;99.90
24224;DHT22;12359;49.716;9.212;2023-08-31T10:10:35;24.90;99.90
24224;DHT22;12359;49.716;9.212;2023-08-31T10:13:03;24.80;99.90
24224;DHT22;12359;49.716;9.212;2023-08-31T10:15:32;24.30;99.90
24224;DHT22;12359;49.716;9.212;2023-08-31T10:18:02;23.90;99.90
24224;DHT22;12359;49.716;9.212;2023-08-31T10:20:29;23.60;99.90
24224;DHT22;12359;49.716;9.212;2023-08-31T10:22:59;23.40;99.90
24224;DHT22;12359;49.716;9.212;2023-08-31T10:28:24;24.70;99.90
24224;DHT22;12359;49.716;9.212;2023-08-31T10:31:08;24.30;99.90
24224;DHT22;12359;49.716;9.212;2023-08-31T10:36:21;23.90;99.90
24224;DHT22;12359;49.716;9.212;2023-08-31T10:43:45;22.70;99.90
24224;DHT22;12359;49.716;9.212;2023-08-31T10:52:24;23.30;99.90
24224;DHT22;12359;49.716;9.212;2023-08-31T10:54:27;23.80;99.90
24224;DHT22;12359;49.716;9.212;2023-08-31T11:07:33;22.70;99.90
24224;DHT22;12359;49.716;9.212;2023-08-31T11:12:50;22.50;99.90
24224;DHT22;12359;49.716;9.212;2023-08-31T11:15:18;23.10;99.90
24224;DHT22;12359;49.716;9.212;2023-08-31T11:17:45;23.50;99.90
24224;DHT22;12359;49.716;9.212;2023-08-31T11:20:16;23.70;99.90
24224;DHT22;12359;49.716;9.212;2023-08-31T11:22:44;23.80;99.90
24224;DHT22;12359;49.716;9.212;2023-08-31T11:25:12;24.10;99.90
24224;DHT22;12359;49.716;9.212;2023-08-31T11:27:38;23.80;99.90
24224;DHT22;12359;49.716;9.212;2023-08-31T11:30:17;23.60;99.90
24224;DHT22;12359;49.716;9.212;2023-08-31T11:32:50;23.50;99.90
24224;DHT22;12359;49.716;9.212;2023-08-31T11:35:17;23.20;99.90
24224;DHT22;12359;49.716;9.212;2023-08-31T11:37:44;23.50;99.90
24224;DHT22;12359;49.716;9.212;2023-08-31T11:40:11;24.00;99.90
24224;DHT22;12359;49.716;9.212;2023-08-31T11:42:40;24.50;99.90
24224;DHT22;12359;49.716;9.212;2023-08-31T11:45:10;24.40;99.90
24224;DHT22;12359;49.716;9.212;2023-08-31T11:47:39;23.80;99.90
24224;DHT22;12359;49.716;9.212;2023-08-31T11:50:06;23.70;99.90
24224;DHT22;12359;49.716;9.212;2023-08-31T11:52:33;23.70;99.90
24224;DHT22;12359;49.716;9.212;2023-08-31T11:55:02;23.90;99.90
24224;DHT22;12359;49.716;9.212;2023-08-31T11:57:27;24.10;99.90
24224;DHT22;12359;49.716;9.212;2023-08-31T11:59:55;23.80;99.90
24224;DHT22;12359;49.716;9.212;2023-08-31T12:02:21;23.80;99.90
24224;DHT22;12359;49.716;9.212;2023-08-31T12:04:48;23.50;99.90
24224;DHT22;12359;49.716;9.212;2023-08-31T12:07:18;23.40;99.90
24224;DHT22;12359;49.716;9.212;2023-08-31T12:09:45;23.80;99.90
24224;DHT22;12359;49.716;9.212;2023-08-31T12:12:13;23.90;99.90
24224;DHT22;12359;49.716;9.212;2023-08-31T12:14:39;24.30;99.90
24224;DHT22;12359;49.716;9.212;2023-08-31T12:17:06;24.50;99.90
24224;DHT22;12359;49.716;9.212;2023-08-31T12:19:35;25.20;99.90
24224;DHT22;12359;49.716;9.212;2023-08-31T12:22:01;25.70;99.90
24224;DHT22;12359;49.716;9.212;2023-08-31T12:24:27;26.20;99.90
24224;DHT22;12359;49.716;9.212;2023-08-31T12:26:53;26.20;99.90
24224;DHT22;12359;49.716;9.212;2023-08-31T12:29:20;26.30;99.90
24224;DHT22;12359;49.716;9.212;2023-08-31T12:31:46;25.70;99.90
24224;DHT22;12359;49.716;9.212;2023-08-31T12:34:11;25.20;99.90
24224;DHT22;12359;49.716;9.212;2023-08-31T12:36:37;24.20;99.90
24224;DHT22;12359;49.716;9.212;2023-08-31T12:39:06;23.50;99.90
24224;DHT22;12359;49.716;9.212;2023-08-31T12:41:35;23.30;99.90
24224;DHT22;12359;49.716;9.212;2023-08-31T12:44:02;23.30;99.90
24224;DHT22;12359;49.716;9.212;2023-08-31T12:46:29;23.10;99.90
24224;DHT22;12359;49.716;9.212;2023-08-31T12:48:55;23.00;99.90
24224;DHT22;12359;49.716;9.212;2023-08-31T12:51:21;22.80;99.90
24224;DHT22;12359;49.716;9.212;2023-08-31T12:53:47;22.50;99.90
24224;DHT22;12359;49.716;9.212;2023-08-31T12:56:13;22.30;99.90
24224;DHT22;12359;49.716;9.212;2023-08-31T12:58:39;22.20;99.90
24224;DHT22;12359;49.716;9.212;2023-08-31T13:01:05;22.30;99.90
24224;DHT22;12359;49.716;9.212;2023-08-31T13:03:30;23.00;99.90
24224;DHT22;12359;49.716;9.212;2023-08-31T13:05:56;23.80;99.90
24224;DHT22;12359;49.716;9.212;2023-08-31T13:08:23;24.40;99.90
24224;DHT22;12359;49.716;9.212;2023-08-31T13:10:55;24.80;99.90
24224;DHT22;12359;49.716;9.212;2023-08-31T13:13:21;25.20;99.90
24224;DHT22;12359;49.716;9.212;2023-08-31T13:15:47;25.10;99.90
24224;DHT22;12359;49.716;9.212;2023-08-31T13:18:13;24.60;99.90
24224;DHT22;12359;49.716;9.212;2023-08-31T13:20:39;24.50;99.90
24224;DHT22;12359;49.716;9.212;2023-08-31T13:23:06;24.00;99.90
24224;DHT22;12359;49.716;9.212;2023-08-31T13:25:32;23.70;99.90
24224;DHT22;12359;49.716;9.212;2023-08-31T13:27:58;23.30;99.90
24224;DHT22;12359;49.716;9.212;2023-08-31T13:30:24;23.20;99.90
24224;DHT22;12359;49.716;9.212;2023-08-31T13:32:49;23.40;99.90
24224;DHT22;12359;49.716;9.212;2023-08-31T13:35:16;23.50;99.90
24224;DHT22;12359;49.716;9.212;2023-08-31T13:37:41;23.80;99.90
24224;DHT22;12359;49.716;9.212;2023-08-31T13:40:07;24.10;99.90
24224;DHT22;12359;49.716;9.212;2023-08-31T13:42:35;24.40;99.90
24224;DHT22;12359;49.716;9.212;2023-08-31T13:45:07;24.50;99.90
24224;DHT22;12359;49.716;9.212;2023-08-31T13:47:33;24.40;99.90
24224;DHT22;12359;49.716;9.212;2023-08-31T13:49:59;24.40;99.90
24224;DHT22;12359;49.716;9.212;2023-08-31T13:52:25;24.60;99.90
24224;DHT22;12359;49.716;9.212;2023-08-31T13:54:50;24.40;99.90
24224;DHT22;12359;49.716;9.212;2023-08-31T13:57:16;24.30;99.90
24224;DHT22;12359;49.716;9.212;2023-08-31T13:59:45;23.80;99.90
24224;DHT22;12359;49.716;9.212;2023-08-31T14:02:11;23.50;99.90
24224;DHT22;12359;49.716;9.212;2023-08-31T14:04:37;23.60;99.90
24224;DHT22;12359;49.716;9.212;2023-08-31T14:07:02;23.70;99.90
24224;DHT22;12359;49.716;9.212;2023-08-31T14:09:28;23.80;99.90
24224;DHT22;12359;49.716;9.212;2023-08-31T14:11:54;24.00;99.90
24224;DHT22;12359;49.716;9.212;2023-08-31T14:14:22;24.20;99.90
24224;DHT22;12359;49.716;9.212;2023-08-31T14:16:49;24.30;99.90
24224;DHT22;12359;49.716;9.212;2023-08-31T14:19:15;24.50;99.90
24224;DHT22;12359;49.716;9.212;2023-08-31T14:21:41;24.30;99.90
24224;DHT22;12359;49.716;9.212;2023-08-31T14:24:07;24.00;99.90
24224;DHT22;12359;49.716;9.212;2023-08-31T14:26:32;23.80;99.90
24224;DHT22;12359;49.716;9.212;2023-08-31T14:28:58;23.20;99.90
24224;DHT22;12359;49.716;9.212;2023-08-31T14:31:24;22.70;99.90
24224;DHT22;12359;49.716;9.212;2023-08-31T14:33:49;22.50;99.90
24224;DHT22;12359;49.716;9.212;2023-08-31T14:36:17;22.30;99.90
24224;DHT22;12359;49.716;9.212;2023-08-31T14:38:43;22.10;99.90
24224;DHT22;12359;49.716;9.212;2023-08-31T14:41:11;22.10;99.90
24224;DHT22;12359;49.716;9.212;2023-08-31T14:43:36;22.20;99.90
24224;DHT22;12359;49.716;9.212;2023-08-31T14:46:02;22.20;99.90
24224;DHT22;12359;49.716;9.212;2023-08-31T14:48:32;22.30;99.90
24224;DHT22;12359;49.716;9.212;2023-08-31T14:50:57;22.40;99.90
24224;DHT22;12359;49.716;9.212;2023-08-31T14:53:27;22.40;99.90
24224;DHT22;12359;49.716;9.212;2023-08-31T14:55:53;22.30;99.90
24224;DHT22;12359;49.716;9.212;2023-08-31T14:58:19;22.40;99.90
24224;DHT22;12359;49.716;9.212;2023-08-31T15:00:45;22.40;99.90
24224;DHT22;12359;49.716;9.212;2023-08-31T15:03:11;22.40;99.90
24224;DHT22;12359;49.716;9.212;2023-08-31T15:05:37;22.40;99.90
24224;DHT22;12359;49.716;9.212;2023-08-31T15:08:07;22.60;99.90
24224;DHT22;12359;49.716;9.212;2023-08-31T15:10:33;22.40;99.90
24224;DHT22;12359;49.716;9.212;2023-08-31T15:12:59;22.50;99.90
24224;DHT22;12359;49.716;9.212;2023-08-31T15:15:29;22.30;99.90
24224;DHT22;12359;49.716;9.212;2023-08-31T15:17:55;22.00;99.90
24224;DHT22;12359;49.716;9.212;2023-08-31T15:20:22;21.80;99.90
24224;DHT22;12359;49.716;9.212;2023-08-31T15:22:48;21.70;99.90
24224;DHT22;12359;49.716;9.212;2023-08-31T15:25:14;21.70;99.90
24224;DHT22;12359;49.716;9.212;2023-08-31T15:27:41;21.60;99.90
24224;DHT22;12359;49.716;9.212;2023-08-31T15:30:08;21.60;99.90
24224;DHT22;12359;49.716;9.212;2023-08-31T15:32:36;21.50;99.90
24224;DHT22;12359;49.716;9.212;2023-08-31T15:35:03;21.50;99.90
24224;DHT22;12359;49.716;9.212;2023-08-31T15:37:29;21.40;99.90
24224;DHT22;12359;49.716;9.212;2023-08-31T15:39:55;21.20;99.90
24224;DHT22;12359;49.716;9.212;2023-08-31T15:42:23;21.20;99.90
24224;DHT22;12359;49.716;9.212;2023-08-31T15:44:50;21.10;99.90
24224;DHT22;12359;49.716;9.212;2023-08-31T15:47:18;21.10;99.90
24224;DHT22;12359;49.716;9.212;2023-08-31T15:49:44;21.10;99.90
24224;DHT22;12359;49.716;9.212;2023-08-31T15:52:09;21.20;99.90
24224;DHT22;12359;49.716;9.212;2023-08-31T15:54:35;21.10;99.90
24224;DHT22;12359;49.716;9.212;2023-08-31T15:57:01;21.10;99.90
24224;DHT22;12359;49.716;9.212;2023-08-31T15:59:28;21.00;99.90
24224;DHT22;12359;49.716;9.212;2023-08-31T16:01:53;20.70;99.90
24224;DHT22;12359;49.716;9.212;2023-08-31T16:04:19;20.70;99.90
24224;DHT22;12359;49.716;9.212;2023-08-31T16:06:45;20.60;99.90
24224;DHT22;12359;49.716;9.212;2023-08-31T16:09:11;20.50;99.90
24224;DHT22;12359;49.716;9.212;2023-08-31T16:11:38;20.50;99.90
24224;DHT22;12359;49.716;9.212;2023-08-31T16:14:04;20.50;99.90
24224;DHT22;12359;49.716;9.212;2023-08-31T16:16:30;20.50;99.90
24224;DHT22;12359;49.716;9.212;2023-08-31T16:18:55;20.50;99.90